Little Rock Air Force Base, Arkansas
Current Conditions -  °F | °C
As of 1:58 AM on Friday 31 Oct 2014 (Local Time) from KLRF Reporting Station
Clear Clear  
Wind Chill: 45°   Ceiling: Unl
Heat Index: 48°   Visibility: 10mi
Dew Point: 46°   Wind: 8mph
Humidity: 90%   Direction: 240°WSW
Pressure: 30.05"   Gusts: NA
Location:  34.9074°N, 92.1397°W
Report Text: KLRF 310658Z AUTO 24007KT 10SM CLR 09/08 A3005 RMK AO2 SLP178 T00910075
Loading
Personal Weather Stations






























Interactive Weather Map New forecast layout! Learn more

10-Day Weather Forecast

Advertisements
Track Severe Weather on mobile